sensor_id;sensor_type;location;lat;lon;timestamp;pressure;altitude;pressure_sealevel;temperature;humidity
4598;BME280;62772;48.646;8.906;2024-02-16T00:04:12;96144.34;;;6.73;100.00
4598;BME280;62772;48.646;8.906;2024-02-16T00:09:13;96143.47;;;6.59;100.00
4598;BME280;62772;48.646;8.906;2024-02-16T00:14:13;96133.78;;;6.68;100.00
4598;BME280;62772;48.646;8.906;2024-02-16T00:19:13;96131.69;;;6.65;100.00
4598;BME280;62772;48.646;8.906;2024-02-16T00:24:14;96138.00;;;6.88;100.00
4598;BME280;62772;48.646;8.906;2024-02-16T00:29:14;96133.53;;;6.83;100.00
4598;BME280;62772;48.646;8.906;2024-02-16T00:34:15;96136.72;;;6.66;100.00
4598;BME280;62772;48.646;8.906;2024-02-16T00:39:15;96125.19;;;6.76;100.00
4598;BME280;62772;48.646;8.906;2024-02-16T00:44:15;96134.22;;;6.56;100.00
4598;BME280;62772;48.646;8.906;2024-02-16T00:49:16;96124.91;;;6.92;100.00
4598;BME280;62772;48.646;8.906;2024-02-16T00:54:17;96135.00;;;6.57;100.00
4598;BME280;62772;48.646;8.906;2024-02-16T00:59:17;96123.44;;;6.66;100.00
4598;BME280;62772;48.646;8.906;2024-02-16T01:04:18;96130.22;;;6.92;100.00
4598;BME280;62772;48.646;8.906;2024-02-16T01:09:18;96124.47;;;6.51;100.00
4598;BME280;62772;48.646;8.906;2024-02-16T01:14:19;96126.25;;;6.75;100.00
4598;BME280;62772;48.646;8.906;2024-02-16T01:19:19;96128.03;;;6.80;100.00
4598;BME280;62772;48.646;8.906;2024-02-16T01:24:20;96125.16;;;7.09;100.00
4598;BME280;62772;48.646;8.906;2024-02-16T01:29:21;96129.59;;;7.14;100.00
4598;BME280;62772;48.646;8.906;2024-02-16T01:34:21;96114.16;;;7.02;100.00
4598;BME280;62772;48.646;8.906;2024-02-16T01:39:22;96119.41;;;6.88;100.00
4598;BME280;62772;48.646;8.906;2024-02-16T01:44:22;96120.47;;;6.87;100.00
4598;BME280;62772;48.646;8.906;2024-02-16T01:49:22;96112.75;;;7.04;100.00
4598;BME280;62772;48.646;8.906;2024-02-16T01:54:23;96105.66;;;6.86;100.00
4598;BME280;62772;48.646;8.906;2024-02-16T01:59:27;96099.88;;;6.98;100.00
4598;BME280;62772;48.646;8.906;2024-02-16T02:04:28;96104.19;;;6.94;100.00
4598;BME280;62772;48.646;8.906;2024-02-16T02:09:28;96109.00;;;6.92;100.00
4598;BME280;62772;48.646;8.906;2024-02-16T02:14:28;96101.25;;;6.95;100.00
4598;BME280;62772;48.646;8.906;2024-02-16T02:19:29;96100.56;;;7.03;100.00
4598;BME280;62772;48.646;8.906;2024-02-16T02:24:30;96096.44;;;6.97;100.00
4598;BME280;62772;48.646;8.906;2024-02-16T02:29:30;96093.72;;;6.83;100.00
4598;BME280;62772;48.646;8.906;2024-02-16T02:34:31;96098.38;;;6.92;100.00
4598;BME280;62772;48.646;8.906;2024-02-16T02:39:32;96075.44;;;6.82;100.00
4598;BME280;62772;48.646;8.906;2024-02-16T02:44:32;96073.84;;;7.14;100.00
4598;BME280;62772;48.646;8.906;2024-02-16T02:49:33;96071.69;;;7.30;100.00
4598;BME280;62772;48.646;8.906;2024-02-16T02:54:35;96063.94;;;6.86;100.00
4598;BME280;62772;48.646;8.906;2024-02-16T02:59:35;96062.22;;;7.23;100.00
4598;BME280;62772;48.646;8.906;2024-02-16T03:04:36;96061.94;;;7.11;100.00
4598;BME280;62772;48.646;8.906;2024-02-16T03:09:36;96061.16;;;7.24;100.00
4598;BME280;62772;48.646;8.906;2024-02-16T03:14:37;96066.47;;;7.52;100.00
4598;BME280;62772;48.646;8.906;2024-02-16T03:19:38;96069.91;;;7.39;100.00
4598;BME280;62772;48.646;8.906;2024-02-16T03:24:38;96078.19;;;7.51;100.00
4598;BME280;62772;48.646;8.906;2024-02-16T03:29:38;96077.09;;;7.52;100.00
4598;BME280;62772;48.646;8.906;2024-02-16T03:34:39;96075.50;;;7.23;100.00
4598;BME280;62772;48.646;8.906;2024-02-16T03:39:39;96071.78;;;7.24;100.00
4598;BME280;62772;48.646;8.906;2024-02-16T03:44:40;96075.50;;;7.10;100.00
4598;BME280;62772;48.646;8.906;2024-02-16T03:49:40;96080.16;;;7.18;100.00
4598;BME280;62772;48.646;8.906;2024-02-16T03:54:40;96076.59;;;7.08;100.00
4598;BME280;62772;48.646;8.906;2024-02-16T03:59:45;96080.34;;;7.35;100.00
4598;BME280;62772;48.646;8.906;2024-02-16T04:04:46;96086.47;;;7.50;100.00
4598;BME280;62772;48.646;8.906;2024-02-16T04:09:46;96082.41;;;7.52;100.00
4598;BME280;62772;48.646;8.906;2024-02-16T04:14:46;96084.47;;;7.28;100.00
4598;BME280;62772;48.646;8.906;2024-02-16T04:19:47;96094.41;;;7.22;100.00
4598;BME280;62772;48.646;8.906;2024-02-16T04:24:47;96096.75;;;7.23;100.00
4598;BME280;62772;48.646;8.906;2024-02-16T04:29:48;96101.88;;;7.20;100.00
4598;BME280;62772;48.646;8.906;2024-02-16T04:34:48;96100.94;;;6.97;100.00
4598;BME280;62772;48.646;8.906;2024-02-16T04:39:49;96113.28;;;7.06;100.00
4598;BME280;62772;48.646;8.906;2024-02-16T04:44:49;96107.44;;;7.04;100.00
4598;BME280;62772;48.646;8.906;2024-02-16T04:49:50;96109.22;;;7.09;100.00
4598;BME280;62772;48.646;8.906;2024-02-16T04:54:50;96108.25;;;7.05;100.00
4598;BME280;62772;48.646;8.906;2024-02-16T04:59:51;96108.69;;;6.93;100.00
4598;BME280;62772;48.646;8.906;2024-02-16T05:04:52;96114.28;;;6.78;100.00
4598;BME280;62772;48.646;8.906;2024-02-16T05:09:52;96113.72;;;6.95;100.00
4598;BME280;62772;48.646;8.906;2024-02-16T05:14:58;96113.84;;;7.03;100.00
4598;BME280;62772;48.646;8.906;2024-02-16T05:19:58;96121.53;;;7.05;100.00
4598;BME280;62772;48.646;8.906;2024-02-16T05:24:59;96129.31;;;6.82;100.00
4598;BME280;62772;48.646;8.906;2024-02-16T05:29:59;96128.09;;;7.07;100.00
4598;BME280;62772;48.646;8.906;2024-02-16T05:34:59;96139.19;;;6.96;100.00
4598;BME280;62772;48.646;8.906;2024-02-16T05:40:00;96131.91;;;6.87;100.00
4598;BME280;62772;48.646;8.906;2024-02-16T05:45:19;96134.13;;;6.80;100.00
4598;BME280;62772;48.646;8.906;2024-02-16T05:50:21;96130.78;;;6.75;100.00
4598;BME280;62772;48.646;8.906;2024-02-16T05:55:22;96134.06;;;6.66;100.00
4598;BME280;62772;48.646;8.906;2024-02-16T06:00:24;96130.50;;;6.76;100.00
4598;BME280;62772;48.646;8.906;2024-02-16T06:05:25;96133.31;;;6.99;100.00
4598;BME280;62772;48.646;8.906;2024-02-16T06:10:25;96141.16;;;6.71;100.00
4598;BME280;62772;48.646;8.906;2024-02-16T06:15:26;96146.69;;;6.75;100.00
4598;BME280;62772;48.646;8.906;2024-02-16T06:20:26;96149.56;;;6.59;100.00
4598;BME280;62772;48.646;8.906;2024-02-16T06:25:27;96151.84;;;6.85;100.00
4598;BME280;62772;48.646;8.906;2024-02-16T06:30:27;96157.59;;;7.06;100.00
4598;BME280;62772;48.646;8.906;2024-02-16T06:35:29;96165.28;;;7.07;100.00
4598;BME280;62772;48.646;8.906;2024-02-16T06:40:30;96169.03;;;7.06;100.00
4598;BME280;62772;48.646;8.906;2024-02-16T06:45:30;96181.16;;;7.13;100.00
4598;BME280;62772;48.646;8.906;2024-02-16T06:50:31;96177.16;;;6.96;100.00
4598;BME280;62772;48.646;8.906;2024-02-16T06:55:31;96182.03;;;7.08;100.00
4598;BME280;62772;48.646;8.906;2024-02-16T07:00:32;96191.06;;;7.07;100.00
4598;BME280;62772;48.646;8.906;2024-02-16T07:05:32;96197.59;;;6.96;100.00
4598;BME280;62772;48.646;8.906;2024-02-16T07:10:33;96193.25;;;7.19;100.00
4598;BME280;62772;48.646;8.906;2024-02-16T07:15:34;96204.75;;;7.14;100.00
4598;BME280;62772;48.646;8.906;2024-02-16T07:20:34;96212.44;;;6.97;100.00
4598;BME280;62772;48.646;8.906;2024-02-16T07:25:35;96219.72;;;6.91;100.00
4598;BME280;62772;48.646;8.906;2024-02-16T07:30:35;96211.81;;;7.05;100.00
4598;BME280;62772;48.646;8.906;2024-02-16T07:35:39;96216.00;;;6.92;100.00
4598;BME280;62772;48.646;8.906;2024-02-16T07:40:39;96225.13;;;7.19;100.00
4598;BME280;62772;48.646;8.906;2024-02-16T07:45:40;96222.41;;;7.24;100.00
4598;BME280;62772;48.646;8.906;2024-02-16T07:50:40;96225.75;;;7.30;100.00
4598;BME280;62772;48.646;8.906;2024-02-16T07:55:41;96228.47;;;7.43;100.00
4598;BME280;62772;48.646;8.906;2024-02-16T08:00:42;96233.59;;;7.54;100.00
4598;BME280;62772;48.646;8.906;2024-02-16T08:05:42;96234.69;;;7.67;100.00
4598;BME280;62772;48.646;8.906;2024-02-16T08:10:43;96231.69;;;7.73;100.00
4598;BME280;62772;48.646;8.906;2024-02-16T08:15:43;96239.06;;;7.76;100.00
4598;BME280;62772;48.646;8.906;2024-02-16T08:20:44;96248.44;;;7.88;100.00
4598;BME280;62772;48.646;8.906;2024-02-16T08:25:45;96250.81;;;8.03;100.00
4598;BME280;62772;48.646;8.906;2024-02-16T08:30:45;96259.19;;;8.10;100.00
4598;BME280;62772;48.646;8.906;2024-02-16T08:35:46;96249.34;;;8.25;100.00
4598;BME280;62772;48.646;8.906;2024-02-16T08:40:47;96261.56;;;8.40;100.00
4598;BME280;62772;48.646;8.906;2024-02-16T08:45:48;96265.03;;;8.40;100.00
4598;BME280;62772;48.646;8.906;2024-02-16T08:50:48;96259.22;;;8.52;100.00
4598;BME280;62772;48.646;8.906;2024-02-16T08:55:49;96255.84;;;8.60;100.00
4598;BME280;62772;48.646;8.906;2024-02-16T09:00:49;96271.31;;;8.72;100.00
4598;BME280;62772;48.646;8.906;2024-02-16T09:05:50;96277.47;;;8.95;100.00
4598;BME280;62772;48.646;8.906;2024-02-16T09:10:50;96278.66;;;9.03;100.00
4598;BME280;62772;48.646;8.906;2024-02-16T09:15:51;96278.22;;;9.10;100.00
4598;BME280;62772;48.646;8.906;2024-02-16T09:20:52;96276.25;;;9.38;100.00
4598;BME280;62772;48.646;8.906;2024-02-16T09:25:53;96279.06;;;9.55;100.00
4598;BME280;62772;48.646;8.906;2024-02-16T09:30:55;96280.13;;;9.54;100.00
4598;BME280;62772;48.646;8.906;2024-02-16T09:35:56;96291.50;;;9.69;100.00
4598;BME280;62772;48.646;8.906;2024-02-16T09:40:57;96297.69;;;9.78;100.00
4598;BME280;62772;48.646;8.906;2024-02-16T09:45:58;96302.38;;;10.04;100.00
4598;BME280;62772;48.646;8.906;2024-02-16T09:51:00;96302.66;;;10.25;100.00
4598;BME280;62772;48.646;8.906;2024-02-16T09:56:00;96309.84;;;10.47;100.00
4598;BME280;62772;48.646;8.906;2024-02-16T10:01:02;96316.34;;;10.63;100.00
4598;BME280;62772;48.646;8.906;2024-02-16T10:06:12;96319.16;;;10.67;100.00
4598;BME280;62772;48.646;8.906;2024-02-16T10:11:15;96328.16;;;10.71;100.00
4598;BME280;62772;48.646;8.906;2024-02-16T10:16:15;96323.94;;;10.87;100.00
4598;BME280;62772;48.646;8.906;2024-02-16T10:21:24;96338.09;;;10.97;100.00
4598;BME280;62772;48.646;8.906;2024-02-16T10:26:25;96337.94;;;10.93;100.00
4598;BME280;62772;48.646;8.906;2024-02-16T10:31:26;96339.69;;;11.06;100.00
4598;BME280;62772;48.646;8.906;2024-02-16T10:36:34;96354.50;;;11.21;100.00
4598;BME280;62772;48.646;8.906;2024-02-16T10:41:37;96353.88;;;11.33;100.00
4598;BME280;62772;48.646;8.906;2024-02-16T10:46:39;96348.38;;;11.38;100.00
4598;BME280;62772;48.646;8.906;2024-02-16T10:51:44;96356.09;;;11.49;100.00
4598;BME280;62772;48.646;8.906;2024-02-16T10:56:47;96354.38;;;11.53;100.00
4598;BME280;62772;48.646;8.906;2024-02-16T11:01:47;96346.50;;;11.56;100.00
4598;BME280;62772;48.646;8.906;2024-02-16T11:06:51;96350.44;;;11.68;100.00
4598;BME280;62772;48.646;8.906;2024-02-16T11:11:53;96344.75;;;11.87;100.00
4598;BME280;62772;48.646;8.906;2024-02-16T11:16:54;96341.31;;;11.95;100.00
4598;BME280;62772;48.646;8.906;2024-02-16T11:21:57;96345.53;;;12.05;100.00
4598;BME280;62772;48.646;8.906;2024-02-16T11:26:58;96339.38;;;12.22;100.00
4598;BME280;62772;48.646;8.906;2024-02-16T11:31:59;96347.06;;;12.23;100.00
4598;BME280;62772;48.646;8.906;2024-02-16T11:37:04;96340.22;;;12.43;100.00
4598;BME280;62772;48.646;8.906;2024-02-16T11:42:09;96346.16;;;12.58;100.00
4598;BME280;62772;48.646;8.906;2024-02-16T11:47:19;96344.16;;;13.14;100.00
4598;BME280;62772;48.646;8.906;2024-02-16T11:52:20;96329.91;;;12.93;100.00
4598;BME280;62772;48.646;8.906;2024-02-16T11:57:23;96328.75;;;13.02;100.00
4598;BME280;62772;48.646;8.906;2024-02-16T12:02:24;96331.41;;;13.32;100.00
4598;BME280;62772;48.646;8.906;2024-02-16T12:07:26;96337.66;;;13.45;100.00
4598;BME280;62772;48.646;8.906;2024-02-16T12:12:31;96340.72;;;13.56;100.00
4598;BME280;62772;48.646;8.906;2024-02-16T12:17:31;96336.41;;;13.64;100.00
4598;BME280;62772;48.646;8.906;2024-02-16T12:22:32;96338.00;;;13.77;100.00
4598;BME280;62772;48.646;8.906;2024-02-16T12:27:32;96336.44;;;13.76;100.00
4598;BME280;62772;48.646;8.906;2024-02-16T12:32:34;96345.25;;;13.97;100.00
4598;BME280;62772;48.646;8.906;2024-02-16T12:37:34;96346.91;;;13.90;100.00
4598;BME280;62772;48.646;8.906;2024-02-16T12:42:35;96345.78;;;13.91;100.00
4598;BME280;62772;48.646;8.906;2024-02-16T12:47:35;96347.28;;;14.01;100.00
4598;BME280;62772;48.646;8.906;2024-02-16T12:52:37;96349.75;;;14.06;100.00
4598;BME280;62772;48.646;8.906;2024-02-16T12:57:38;96355.13;;;14.06;100.00
4598;BME280;62772;48.646;8.906;2024-02-16T13:02:39;96353.84;;;13.91;100.00
4598;BME280;62772;48.646;8.906;2024-02-16T13:07:39;96359.50;;;14.10;100.00
4598;BME280;62772;48.646;8.906;2024-02-16T13:12:41;96348.75;;;14.10;100.00
4598;BME280;62772;48.646;8.906;2024-02-16T13:17:43;96358.38;;;14.11;100.00
4598;BME280;62772;48.646;8.906;2024-02-16T13:22:44;96359.09;;;14.21;100.00
4598;BME280;62772;48.646;8.906;2024-02-16T13:27:44;96361.78;;;14.33;100.00
4598;BME280;62772;48.646;8.906;2024-02-16T13:32:44;96366.31;;;14.41;100.00
4598;BME280;62772;48.646;8.906;2024-02-16T13:37:45;96363.47;;;14.38;100.00
4598;BME280;62772;48.646;8.906;2024-02-16T13:42:45;96373.78;;;14.36;100.00
4598;BME280;62772;48.646;8.906;2024-02-16T13:47:46;96377.13;;;14.32;100.00
4598;BME280;62772;48.646;8.906;2024-02-16T13:52:46;96385.78;;;14.38;100.00
4598;BME280;62772;48.646;8.906;2024-02-16T13:57:47;96379.38;;;14.30;100.00
4598;BME280;62772;48.646;8.906;2024-02-16T14:02:47;96393.34;;;14.36;100.00
4598;BME280;62772;48.646;8.906;2024-02-16T14:07:48;96390.22;;;14.34;100.00
4598;BME280;62772;48.646;8.906;2024-02-16T14:12:48;96395.38;;;14.39;100.00
4598;BME280;62772;48.646;8.906;2024-02-16T14:17:49;96410.63;;;14.35;100.00
4598;BME280;62772;48.646;8.906;2024-02-16T14:22:49;96409.66;;;14.19;100.00
4598;BME280;62772;48.646;8.906;2024-02-16T14:27:50;96408.28;;;14.12;100.00
4598;BME280;62772;48.646;8.906;2024-02-16T14:32:50;96415.78;;;14.07;100.00
4598;BME280;62772;48.646;8.906;2024-02-16T14:37:51;96419.22;;;14.07;100.00
4598;BME280;62772;48.646;8.906;2024-02-16T14:42:51;96421.09;;;13.94;100.00
4598;BME280;62772;48.646;8.906;2024-02-16T14:47:52;96421.72;;;13.91;100.00
4598;BME280;62772;48.646;8.906;2024-02-16T14:52:52;96427.09;;;13.91;100.00
4598;BME280;62772;48.646;8.906;2024-02-16T14:57:54;96424.75;;;13.90;100.00
4598;BME280;62772;48.646;8.906;2024-02-16T15:02:54;96436.47;;;13.85;100.00
4598;BME280;62772;48.646;8.906;2024-02-16T15:07:55;96432.06;;;13.81;100.00
4598;BME280;62772;48.646;8.906;2024-02-16T15:12:55;96440.06;;;13.89;100.00
4598;BME280;62772;48.646;8.906;2024-02-16T15:17:55;96432.81;;;13.90;100.00
4598;BME280;62772;48.646;8.906;2024-02-16T15:22:56;96445.63;;;13.63;100.00
4598;BME280;62772;48.646;8.906;2024-02-16T15:27:57;96451.06;;;13.54;100.00
4598;BME280;62772;48.646;8.906;2024-02-16T15:32:59;96448.91;;;13.48;100.00
4598;BME280;62772;48.646;8.906;2024-02-16T15:38:00;96455.91;;;13.61;100.00
4598;BME280;62772;48.646;8.906;2024-02-16T15:43:04;96465.06;;;13.60;100.00
4598;BME280;62772;48.646;8.906;2024-02-16T15:48:07;96468.19;;;13.41;100.00
4598;BME280;62772;48.646;8.906;2024-02-16T15:53:08;96478.25;;;13.44;100.00
4598;BME280;62772;48.646;8.906;2024-02-16T15:58:09;96479.94;;;13.19;100.00
4598;BME280;62772;48.646;8.906;2024-02-16T16:03:10;96483.28;;;13.46;100.00
4598;BME280;62772;48.646;8.906;2024-02-16T16:08:10;96490.66;;;13.19;100.00
4598;BME280;62772;48.646;8.906;2024-02-16T16:13:10;96490.22;;;13.08;100.00
4598;BME280;62772;48.646;8.906;2024-02-16T16:18:11;96495.19;;;13.27;100.00
4598;BME280;62772;48.646;8.906;2024-02-16T16:23:15;96509.34;;;13.45;100.00
4598;BME280;62772;48.646;8.906;2024-02-16T16:28:18;96502.19;;;13.11;100.00
4598;BME280;62772;48.646;8.906;2024-02-16T16:33:18;96507.50;;;12.81;100.00
4598;BME280;62772;48.646;8.906;2024-02-16T16:38:19;96515.38;;;12.86;100.00
4598;BME280;62772;48.646;8.906;2024-02-16T16:43:19;96528.00;;;12.77;100.00
4598;BME280;62772;48.646;8.906;2024-02-16T16:48:20;96533.06;;;12.69;100.00
4598;BME280;62772;48.646;8.906;2024-02-16T16:53:20;96543.81;;;12.52;100.00
4598;BME280;62772;48.646;8.906;2024-02-16T16:58:21;96554.19;;;12.54;100.00
4598;BME280;62772;48.646;8.906;2024-02-16T17:03:21;96558.75;;;12.53;100.00
4598;BME280;62772;48.646;8.906;2024-02-16T17:08:22;96567.59;;;12.71;100.00
4598;BME280;62772;48.646;8.906;2024-02-16T17:13:23;96578.94;;;12.42;100.00
4598;BME280;62772;48.646;8.906;2024-02-16T17:18:23;96578.31;;;12.54;100.00
4598;BME280;62772;48.646;8.906;2024-02-16T17:23:24;96581.31;;;12.52;100.00
4598;BME280;62772;48.646;8.906;2024-02-16T17:28:25;96595.16;;;12.54;100.00
4598;BME280;62772;48.646;8.906;2024-02-16T17:33:25;96600.03;;;12.17;100.00
4598;BME280;62772;48.646;8.906;2024-02-16T17:38:26;96608.97;;;12.04;100.00
4598;BME280;62772;48.646;8.906;2024-02-16T17:43:26;96618.88;;;12.12;100.00
4598;BME280;62772;48.646;8.906;2024-02-16T17:48:27;96620.47;;;12.04;100.00
4598;BME280;62772;48.646;8.906;2024-02-16T17:53:30;96627.31;;;11.88;100.00
4598;BME280;62772;48.646;8.906;2024-02-16T17:58:30;96631.06;;;12.27;100.00
4598;BME280;62772;48.646;8.906;2024-02-16T18:03:31;96633.94;;;11.90;100.00
4598;BME280;62772;48.646;8.906;2024-02-16T18:08:31;96643.47;;;12.14;100.00
4598;BME280;62772;48.646;8.906;2024-02-16T18:13:32;96647.09;;;12.18;100.00
4598;BME280;62772;48.646;8.906;2024-02-16T18:18:32;96651.78;;;11.95;100.00
4598;BME280;62772;48.646;8.906;2024-02-16T18:23:33;96650.13;;;11.85;100.00
4598;BME280;62772;48.646;8.906;2024-02-16T18:28:34;96652.47;;;11.78;100.00
4598;BME280;62772;48.646;8.906;2024-02-16T18:33:34;96653.69;;;12.12;100.00
4598;BME280;62772;48.646;8.906;2024-02-16T18:38:34;96666.59;;;12.01;100.00
4598;BME280;62772;48.646;8.906;2024-02-16T18:43:36;96671.41;;;11.90;100.00
4598;BME280;62772;48.646;8.906;2024-02-16T18:48:36;96668.66;;;11.41;100.00
4598;BME280;62772;48.646;8.906;2024-02-16T18:53:39;96670.03;;;11.61;100.00
4598;BME280;62772;48.646;8.906;2024-02-16T18:58:41;96675.09;;;12.03;100.00
4598;BME280;62772;48.646;8.906;2024-02-16T19:03:41;96670.72;;;11.76;100.00
4598;BME280;62772;48.646;8.906;2024-02-16T19:08:42;96682.19;;;11.76;100.00
4598;BME280;62772;48.646;8.906;2024-02-16T19:13:43;96684.31;;;11.57;100.00
4598;BME280;62772;48.646;8.906;2024-02-16T19:18:44;96691.97;;;11.81;100.00
4598;BME280;62772;48.646;8.906;2024-02-16T19:23:44;96692.66;;;11.55;100.00
4598;BME280;62772;48.646;8.906;2024-02-16T19:28:45;96703.72;;;11.94;100.00
4598;BME280;62772;48.646;8.906;2024-02-16T19:33:46;96700.59;;;11.47;100.00
4598;BME280;62772;48.646;8.906;2024-02-16T19:38:46;96703.00;;;11.79;100.00
4598;BME280;62772;48.646;8.906;2024-02-16T19:43:47;96710.34;;;11.42;100.00
4598;BME280;62772;48.646;8.906;2024-02-16T19:48:47;96705.19;;;11.46;100.00
4598;BME280;62772;48.646;8.906;2024-02-16T19:53:48;96713.44;;;11.13;100.00
4598;BME280;62772;48.646;8.906;2024-02-16T19:58:48;96715.38;;;10.99;100.00
4598;BME280;62772;48.646;8.906;2024-02-16T20:03:50;96720.06;;;11.38;100.00
4598;BME280;62772;48.646;8.906;2024-02-16T20:08:50;96726.16;;;11.07;100.00
4598;BME280;62772;48.646;8.906;2024-02-16T20:13:51;96733.56;;;11.11;100.00
4598;BME280;62772;48.646;8.906;2024-02-16T20:18:54;96729.88;;;11.20;100.00
4598;BME280;62772;48.646;8.906;2024-02-16T20:23:57;96738.91;;;11.11;100.00
4598;BME280;62772;48.646;8.906;2024-02-16T20:28:59;96746.06;;;11.24;100.00
4598;BME280;62772;48.646;8.906;2024-02-16T20:34:02;96741.31;;;10.98;100.00
4598;BME280;62772;48.646;8.906;2024-02-16T20:39:02;96744.16;;;11.02;100.00
4598;BME280;62772;48.646;8.906;2024-02-16T20:44:03;96757.41;;;11.07;100.00
4598;BME280;62772;48.646;8.906;2024-02-16T20:49:04;96759.44;;;11.01;100.00
4598;BME280;62772;48.646;8.906;2024-02-16T20:54:04;96767.22;;;10.47;100.00
4598;BME280;62772;48.646;8.906;2024-02-16T20:59:05;96770.69;;;10.48;100.00
4598;BME280;62772;48.646;8.906;2024-02-16T21:04:05;96771.75;;;10.61;100.00
4598;BME280;62772;48.646;8.906;2024-02-16T21:09:06;96774.72;;;10.59;100.00
4598;BME280;62772;48.646;8.906;2024-02-16T21:14:07;96786.22;;;10.60;100.00
4598;BME280;62772;48.646;8.906;2024-02-16T21:19:08;96794.28;;;10.96;100.00
4598;BME280;62772;48.646;8.906;2024-02-16T21:24:09;96790.25;;;10.71;100.00
4598;BME280;62772;48.646;8.906;2024-02-16T21:29:09;96794.16;;;11.15;100.00
4598;BME280;62772;48.646;8.906;2024-02-16T21:34:10;96805.53;;;11.07;100.00
4598;BME280;62772;48.646;8.906;2024-02-16T21:39:11;96807.28;;;11.25;100.00
4598;BME280;62772;48.646;8.906;2024-02-16T21:44:11;96816.03;;;10.89;100.00
4598;BME280;62772;48.646;8.906;2024-02-16T21:49:12;96816.84;;;10.90;100.00
4598;BME280;62772;48.646;8.906;2024-02-16T21:54:13;96818.06;;;10.84;100.00
4598;BME280;62772;48.646;8.906;2024-02-16T21:59:13;96830.22;;;11.04;100.00
4598;BME280;62772;48.646;8.906;2024-02-16T22:04:14;96832.19;;;10.70;100.00
4598;BME280;62772;48.646;8.906;2024-02-16T22:09:14;96827.66;;;10.71;100.00
4598;BME280;62772;48.646;8.906;2024-02-16T22:14:15;96841.50;;;10.59;100.00
4598;BME280;62772;48.646;8.906;2024-02-16T22:19:16;96843.06;;;10.46;100.00
4598;BME280;62772;48.646;8.906;2024-02-16T22:24:16;96843.94;;;10.28;100.00
4598;BME280;62772;48.646;8.906;2024-02-16T22:29:16;96847.72;;;10.41;100.00
4598;BME280;62772;48.646;8.906;2024-02-16T22:34:17;96851.97;;;10.42;100.00
4598;BME280;62772;48.646;8.906;2024-02-16T22:39:18;96842.44;;;10.22;100.00
4598;BME280;62772;48.646;8.906;2024-02-16T22:44:18;96858.59;;;9.97;100.00
4598;BME280;62772;48.646;8.906;2024-02-16T22:49:19;96864.06;;;9.87;100.00
4598;BME280;62772;48.646;8.906;2024-02-16T22:54:19;96868.16;;;9.98;100.00
4598;BME280;62772;48.646;8.906;2024-02-16T22:59:20;96867.28;;;10.03;100.00
4598;BME280;62772;48.646;8.906;2024-02-16T23:04:20;96871.59;;;10.18;100.00
4598;BME280;62772;48.646;8.906;2024-02-16T23:09:21;96880.13;;;10.01;100.00
4598;BME280;62772;48.646;8.906;2024-02-16T23:14:22;96890.75;;;9.87;100.00
4598;BME280;62772;48.646;8.906;2024-02-16T23:19:23;96891.63;;;9.83;100.00
4598;BME280;62772;48.646;8.906;2024-02-16T23:24:23;96897.13;;;9.72;100.00
4598;BME280;62772;48.646;8.906;2024-02-16T23:29:24;96896.97;;;9.63;100.00
4598;BME280;62772;48.646;8.906;2024-02-16T23:34:25;96898.63;;;9.78;100.00
4598;BME280;62772;48.646;8.906;2024-02-16T23:39:26;96909.59;;;10.10;100.00
4598;BME280;62772;48.646;8.906;2024-02-16T23:44:27;96907.84;;;10.19;100.00
4598;BME280;62772;48.646;8.906;2024-02-16T23:49:27;96907.94;;;10.33;100.00
4598;BME280;62772;48.646;8.906;2024-02-16T23:54:28;96906.78;;;10.39;100.00
4598;BME280;62772;48.646;8.906;2024-02-16T23:59:28;96914.59;;;10.49;100.00
